Time;durP1;ratioP1;P1;durP2;ratioP2;P2;SDS_P1;SDS_P2;PMS_P1;PMS_P2;Temp;Humidity;BMP_temperature;BMP_pressure;BME280_temperature;BME280_humidity;BME280_pressure;Samples;Min_cycle;Max_cycle;Signal;HPM_P1;HPM_P2
2022/03/23 00:01:53;;;;;;;11.00;8.23;;;21.00;69.80;;;;;;5110399;28;20093;-73
2022/03/23 00:04:19;;;;;;;10.60;8.35;;;;;;;;;;5123340;27;20043;-73
2022/03/23 00:06:45;;;;;;;9.45;7.68;;;21.20;78.80;;;;;;5110364;28;20510;-73
2022/03/23 00:09:14;;;;;;;12.35;8.55;;;20.60;50.50;;;;;;5111007;28;20077;-73
2022/03/23 00:11:40;;;;;;;;;;;20.60;50.50;;;;;;5110009;28;20563;-73
2022/03/23 00:14:06;;;;;;;11.18;8.20;;;20.60;50.30;;;;;;5091773;28;19919;-73
2022/03/23 00:16:35;;;;;;;11.55;8.98;;;20.60;50.50;;;;;;5108976;28;20581;-74
2022/03/23 00:19:04;;;;;;;10.48;8.40;;;20.50;50.50;;;;;;5092002;28;20470;-73
2022/03/23 00:21:30;;;;;;;10.77;8.60;;;20.50;50.40;;;;;;5107508;28;20093;-73
2022/03/23 00:23:56;;;;;;;11.13;8.40;;;20.50;50.40;;;;;;5091642;28;20043;-73
2022/03/23 00:26:22;;;;;;;11.65;9.07;;;20.50;50.40;;;;;;5091524;28;20040;-72
2022/03/23 00:28:48;;;;;;;12.00;9.45;;;20.50;50.40;;;;;;5090093;28;20431;-73
2022/03/23 00:31:15;;;;;;;12.13;8.40;;;20.50;50.40;;;;;;5086218;28;20066;-72
2022/03/23 00:33:40;;;;;;;10.18;7.63;;;20.40;50.30;;;;;;5108371;28;20027;-72
2022/03/23 00:36:07;;;;;;;10.40;8.13;;;20.50;50.40;;;;;;5108375;28;20024;-73
2022/03/23 00:38:33;;;;;;;11.75;8.13;;;20.50;50.40;;;;;;5109008;28;20111;-73
2022/03/23 00:40:59;;;;;;;10.40;8.07;;;20.40;50.30;;;;;;5091613;28;20131;-73
2022/03/23 00:43:25;;;;;;;10.15;8.15;;;20.40;50.30;;;;;;5092001;28;20092;-72
2022/03/23 00:45:51;;;;;;;10.48;7.82;;;20.40;50.30;;;;;;5092448;27;20035;-73
2022/03/23 00:48:17;;;;;;;10.48;8.32;;;20.40;50.30;;;;;;5091737;28;20440;-73
2022/03/23 00:50:42;;;;;;;11.10;8.20;;;20.40;50.30;;;;;;5106956;28;20086;-73
2022/03/23 00:53:08;;;;;;;10.32;8.25;;;20.40;50.30;;;;;;5104713;28;20028;-73
2022/03/23 00:55:34;;;;;;;11.15;7.95;;;20.40;50.30;;;;;;5105554;28;20039;-73
2022/03/23 00:58:00;;;;;;;12.65;8.57;;;20.40;50.30;;;;;;5109808;28;20501;-72
2022/03/23 01:00:25;;;;;;;9.98;7.95;;;20.30;50.30;;;;;;5109589;28;20039;-74
2022/03/23 01:02:53;;;;;;;10.95;8.43;;;20.30;50.20;;;;;;5110012;28;20034;-74
2022/03/23 01:05:19;;;;;;;10.00;7.85;;;20.30;50.20;;;;;;5109546;28;20040;-73
2022/03/23 01:07:46;;;;;;;10.52;8.23;;;20.30;50.30;;;;;;5107513;28;20035;-72
2022/03/23 01:10:14;;;;;;;10.68;8.48;;;20.30;50.30;;;;;;5108974;28;20056;-73
2022/03/23 01:12:41;;;;;;;12.13;9.20;;;20.30;50.20;;;;;;5110162;28;20502;-73
2022/03/23 01:15:09;;;;;;;10.60;8.55;;;20.30;50.20;;;;;;5109490;28;20073;-73
2022/03/23 01:17:36;;;;;;;12.20;8.75;;;20.30;50.40;;;;;;5109242;28;20043;-73
2022/03/23 01:20:05;;;;;;;10.10;8.13;;;20.50;62.60;;;;;;5091709;28;20092;-73
2022/03/23 01:22:31;;;;;;;12.07;8.63;;;20.30;87.60;;;;;;5108546;28;20048;-72
2022/03/23 01:24:57;;;;;;;10.55;8.98;;;20.70;87.60;;;;;;5108911;28;20402;-73
2022/03/23 01:27:22;;;;;;;11.77;8.65;;;20.30;79.30;;;;;;5093506;28;20043;-73
2022/03/23 01:29:48;;;;;;;13.00;8.38;;;20.30;50.10;;;;;;5090366;28;20036;-72
2022/03/23 01:32:14;;;;;;;11.02;7.90;;;20.20;50.10;;;;;;5109177;28;20127;-73
2022/03/23 01:34:40;;;;;;;11.02;8.60;;;20.20;50.00;;;;;;5091004;28;20577;-73
2022/03/23 01:37:05;;;;;;;10.40;8.50;;;20.20;50.00;;;;;;5090291;28;20493;-73
2022/03/23 01:39:31;;;;;;;11.48;8.55;;;20.20;50.00;;;;;;5108920;28;20092;-74
2022/03/23 01:41:58;;;;;;;10.30;8.48;;;20.20;50.00;;;;;;5073448;28;20031;-75
2022/03/23 01:44:25;;;;;;;13.25;8.95;;;20.20;50.00;;;;;;5108072;28;20051;-73
2022/03/23 01:47:07;;;;;;;10.10;8.50;;;20.20;49.90;;;;;;5109392;28;20069;-73
2022/03/23 01:49:38;;;;;;;10.75;8.73;;;20.20;49.90;;;;;;5120056;28;20509;-73
2022/03/23 01:52:06;;;;;;;11.02;8.75;;;20.20;49.90;;;;;;5108156;28;20414;-73
2022/03/23 01:54:33;;;;;;;12.75;9.02;;;20.20;49.80;;;;;;5106454;28;20035;-73
2022/03/23 01:57:00;;;;;;;11.20;8.57;;;20.20;49.80;;;;;;5105172;28;20393;-73
2022/03/23 01:59:26;;;;;;;11.45;8.40;;;20.20;49.80;;;;;;5108299;28;20035;-73
2022/03/23 02:01:53;;;;;;;12.07;8.57;;;20.20;49.80;;;;;;5090048;28;20051;-73
2022/03/23 02:04:20;;;;;;;10.35;8.70;;;20.20;49.80;;;;;;5090721;28;20115;-72
2022/03/23 02:06:48;;;;;;;10.52;8.27;;;20.20;49.80;;;;;;5108738;28;20039;-73
2022/03/23 02:09:15;;;;;;;12.10;8.40;;;20.10;49.70;;;;;;5107987;28;20031;-72
2022/03/23 02:11:42;;;;;;;10.55;8.52;;;20.10;49.80;;;;;;5108278;28;20055;-74
2022/03/23 02:14:09;;;;;;;10.02;7.85;;;20.10;49.70;;;;;;5108641;28;20027;-73
2022/03/23 02:16:40;;;;;;;10.50;8.23;;;20.10;49.80;;;;;;5108657;28;20122;-73
2022/03/23 02:19:05;;;;;;;10.77;8.30;;;20.10;49.80;;;;;;5111718;28;20031;-72
2022/03/23 02:21:31;;;;;;;9.32;8.05;;;20.10;49.70;;;;;;5112184;28;20144;-73
2022/03/23 02:23:57;;;;;;;10.27;8.77;;;20.10;49.70;;;;;;5092966;28;20055;-73
2022/03/23 02:26:25;;;;;;;9.90;7.93;;;20.10;50.50;;;;;;5112056;28;20040;-73
2022/03/23 02:28:51;;;;;;;11.52;8.52;;;20.10;49.70;;;;;;5109126;28;20028;-74
2022/03/23 02:31:17;;;;;;;11.70;7.90;;;20.10;49.60;;;;;;5111982;28;20063;-74
2022/03/23 02:33:43;;;;;;;10.07;8.25;;;20.10;49.60;;;;;;5112128;28;20059;-73
2022/03/23 02:36:09;;;;;;;12.05;8.35;;;20.00;49.70;;;;;;5111791;28;20039;-73
2022/03/23 02:38:34;;;;;;;12.05;8.27;;;20.00;49.60;;;;;;5093365;28;20059;-74
2022/03/23 02:41:00;;;;;;;11.32;8.63;;;20.00;49.60;;;;;;5112130;27;20058;-72
2022/03/23 02:43:26;;;;;;;11.18;8.60;;;20.00;49.60;;;;;;5112016;28;20035;-73
2022/03/23 02:45:51;;;;;;;9.45;8.25;;;20.10;49.60;;;;;;5113127;27;20045;-72
2022/03/23 02:48:17;;;;;;;9.63;7.80;;;20.00;49.60;;;;;;5108219;28;20039;-73
2022/03/23 02:50:43;;;;;;;9.43;8.07;;;20.00;49.50;;;;;;5111894;28;20043;-73
2022/03/23 03:01:52;;;;;;;10.50;7.90;;;20.00;49.50;;;;;;5112237;28;20051;-73
2022/03/23 03:04:21;;;;;;;11.65;8.23;;;20.00;49.50;;;;;;5111527;28;20521;-74
2022/03/23 03:06:48;;;;;;;10.10;7.65;;;20.00;50.30;;;;;;5092916;28;20043;-72
2022/03/23 03:09:15;;;;;;;9.32;7.70;;;20.00;49.50;;;;;;5092283;28;20054;-73
2022/03/23 03:11:43;;;;;;;10.13;7.63;;;20.00;49.50;;;;;;5110742;28;20059;-71
2022/03/23 03:14:10;;;;;;;8.40;7.50;;;20.00;49.50;;;;;;5110544;27;20055;-73
2022/03/23 03:16:36;;;;;;;8.75;7.45;;;20.00;49.50;;;;;;5076523;28;20516;-73
2022/03/23 03:19:05;;;;;;;9.60;7.93;;;20.00;49.50;;;;;;5091543;28;20077;-73
2022/03/23 03:21:32;;;;;;;11.43;8.38;;;20.00;49.50;;;;;;5092311;28;20482;-73
2022/03/23 03:23:58;;;;;;;11.07;7.90;;;19.90;49.40;;;;;;5110601;28;20035;-73
2022/03/23 03:26:24;;;;;;;9.30;7.82;;;20.00;49.50;;;;;;5111178;28;20510;-73
2022/03/23 03:28:50;;;;;;;9.63;8.07;;;19.90;49.40;;;;;;5092335;28;20150;-73
2022/03/23 03:31:16;;;;;;;9.10;7.20;;;19.90;49.40;;;;;;5129041;27;20130;-73
2022/03/23 03:33:43;;;;;;;9.50;7.85;;;19.90;49.40;;;;;;5092781;28;20043;-73
2022/03/23 03:36:09;;;;;;;11.65;8.35;;;19.90;49.40;;;;;;5112405;27;20043;-72
2022/03/23 03:38:37;;;;;;;11.13;7.80;;;19.90;49.40;;;;;;5110276;28;20406;-73
2022/03/23 03:41:06;;;;;;;8.40;7.38;;;19.90;49.40;;;;;;5108089;28;20054;-74
2022/03/23 03:43:32;;;;;;;11.27;7.93;;;19.90;49.40;;;;;;5110986;28;20421;-74
2022/03/23 03:46:00;;;;;;;9.00;7.60;;;19.90;49.40;;;;;;5094210;27;20116;-73
2022/03/23 03:48:26;;;;;;;9.32;7.10;;;19.90;49.40;;;;;;5094942;28;20497;-73
2022/03/23 03:50:52;;;;;;;10.70;8.15;;;19.90;49.50;;;;;;5113110;27;20046;-73
2022/03/23 03:53:17;;;;;;;9.25;7.70;;;19.90;49.40;;;;;;5088633;28;20044;-74
2022/03/23 03:55:43;;;;;;;9.63;7.95;;;19.90;49.40;;;;;;5110341;28;20395;-74
2022/03/23 03:58:09;;;;;;;9.90;7.57;;;19.90;49.40;;;;;;5110304;28;20035;-72
2022/03/23 04:00:36;;;;;;;8.82;7.57;;;19.90;49.40;;;;;;5091114;28;20404;-73
2022/03/23 04:03:03;;;;;;;9.77;7.55;;;19.90;49.40;;;;;;5110053;28;20414;-73
2022/03/23 04:05:29;;;;;;;9.77;7.82;;;19.80;49.30;;;;;;5111010;28;20035;-74
2022/03/23 04:07:57;;;;;;;10.35;8.10;;;19.80;49.30;;;;;;5111384;27;20041;-72
2022/03/23 04:10:24;;;;;;;10.90;8.48;;;19.80;49.40;;;;;;5106752;28;20058;-73
2022/03/23 04:12:51;;;;;;;9.10;7.80;;;19.80;49.40;;;;;;5110833;27;20452;-72
2022/03/23 04:15:19;;;;;;;10.23;7.70;;;19.80;49.30;;;;;;5092060;28;20134;-73
2022/03/23 04:17:45;;;;;;;9.73;7.82;;;19.80;49.30;;;;;;5109536;27;21663;-73
2022/03/23 04:20:11;;;;;;;10.25;7.47;;;;;;;;;;5091334;28;20105;-73
2022/03/23 04:22:38;;;;;;;8.90;7.28;;;19.80;48.70;;;;;;5090371;28;20047;-73
2022/03/23 04:25:16;;;;;;;11.60;7.47;;;19.80;49.30;;;;;;5110075;28;20371;-73
2022/03/23 04:27:52;;;;;;;8.05;7.25;;;19.70;49.20;;;;;;5110036;28;20043;-73
2022/03/23 04:30:20;;;;;;;10.73;7.70;;;19.70;49.20;;;;;;5109343;28;20054;-73
2022/03/23 04:32:49;;;;;;;10.75;7.75;;;19.70;49.30;;;;;;5109951;28;20044;-72
2022/03/23 04:35:15;;;;;;;9.88;7.90;;;19.80;49.30;;;;;;5109274;28;20165;-73
2022/03/23 04:37:42;;;;;;;10.05;7.53;;;19.80;49.30;;;;;;5123038;27;20035;-72
2022/03/23 04:40:09;;;;;;;10.32;8.35;;;19.70;49.20;;;;;;5090942;28;20039;-72
2022/03/23 04:42:37;;;;;;;10.23;7.40;;;19.70;49.30;;;;;;5092128;28;20040;-73
2022/03/23 04:45:04;;;;;;;9.95;7.68;;;19.70;49.20;;;;;;5108131;28;20031;-73
2022/03/23 04:47:30;;;;;;;9.27;7.68;;;19.70;49.20;;;;;;5109750;27;20051;-72
2022/03/23 04:49:56;;;;;;;8.48;7.57;;;19.70;49.30;;;;;;5106214;28;20040;-73
2022/03/23 04:52:22;;;;;;;9.63;7.70;;;19.70;49.40;;;;;;5102005;28;20043;-73
2022/03/23 04:54:48;;;;;;;9.43;7.60;;;19.70;49.30;;;;;;5106867;28;20042;-73
2022/03/23 04:57:13;;;;;;;9.13;7.63;;;19.70;49.30;;;;;;5109500;28;20126;-72
2022/03/23 04:59:39;;;;;;;10.13;7.60;;;19.70;49.30;;;;;;5090899;28;20123;-73
2022/03/23 05:02:05;;;;;;;9.65;7.93;;;19.70;49.30;;;;;;5090941;28;20047;-73
2022/03/23 05:04:31;;;;;;;10.30;7.40;;;19.60;49.20;;;;;;5108862;28;20028;-72
2022/03/23 05:06:57;;;;;;;8.98;7.78;;;19.70;49.20;;;;;;5109192;28;20359;-73
2022/03/23 05:09:22;;;;;;;9.70;7.40;;;19.60;49.20;;;;;;5089777;28;20067;-72
2022/03/23 05:11:48;;;;;;;9.52;8.00;;;19.60;49.20;;;;;;5109067;28;20143;-72
2022/03/23 05:14:15;;;;;;;9.73;7.50;;;19.60;49.20;;;;;;5111962;28;20131;-72
2022/03/23 05:16:42;;;;;;;10.85;8.00;;;19.60;49.20;;;;;;5091108;28;20039;-73
2022/03/23 05:19:07;;;;;;;8.77;6.95;;;19.60;49.20;;;;;;5107173;28;20047;-73
2022/03/23 05:21:33;;;;;;;10.85;7.97;;;19.60;49.20;;;;;;5107738;28;20573;-73
2022/03/23 05:23:59;;;;;;;7.72;6.85;;;19.60;49.20;;;;;;5090054;28;20478;-72
2022/03/23 05:26:25;;;;;;;8.85;7.10;;;19.60;49.20;;;;;;5109061;28;20039;-72
2022/03/23 05:28:50;;;;;;;9.55;7.40;;;19.60;49.20;;;;;;5108911;28;20130;-73
2022/03/23 05:31:16;;;;;;;9.77;7.75;;;19.60;49.20;;;;;;5108533;28;20067;-72
2022/03/23 05:33:42;;;;;;;8.77;7.38;;;19.60;49.10;;;;;;5109020;28;20053;-72
2022/03/23 05:36:08;;;;;;;9.48;7.75;;;19.60;49.20;;;;;;5108818;28;20547;-72
2022/03/23 05:38:34;;;;;;;10.23;7.50;;;19.60;49.20;;;;;;5089711;28;20039;-73
2022/03/23 05:41:00;;;;;;;8.75;7.60;;;19.60;49.10;;;;;;5091282;28;20046;-72
2022/03/23 05:43:25;;;;;;;8.50;7.15;;;19.60;49.20;;;;;;5108668;28;20394;-73
2022/03/23 05:45:51;;;;;;;9.50;7.10;;;19.60;49.10;;;;;;5109321;28;20126;-73
2022/03/23 05:48:17;;;;;;;9.13;7.05;;;19.60;49.10;;;;;;5089022;28;20039;-73
2022/03/23 05:50:43;;;;;;;9.95;6.97;;;19.60;49.10;;;;;;5108520;28;20024;-72
2022/03/23 05:53:09;;;;;;;9.52;7.47;;;19.60;49.10;;;;;;5091154;28;20461;-73
2022/03/23 05:55:35;;;;;;;8.15;7.22;;;19.50;49.10;;;;;;5112692;27;20036;-73
2022/03/23 05:58:03;;;;;;;8.90;7.07;;;19.60;49.10;;;;;;5094987;28;20064;-73
2022/03/23 06:00:31;;;;;;;9.50;7.28;;;19.60;49.10;;;;;;5127173;27;20039;-72
2022/03/23 06:03:02;;;;;;;8.43;7.25;;;19.60;49.10;;;;;;5111586;27;20474;-72
2022/03/23 06:05:28;;;;;;;8.50;7.50;;;19.60;49.10;;;;;;5110208;28;20126;-73
2022/03/23 06:07:55;;;;;;;8.63;6.97;;;19.50;49.00;;;;;;5112612;28;20123;-72
2022/03/23 06:10:20;;;;;;;11.05;7.47;;;19.60;49.00;;;;;;5095995;27;20100;-73
2022/03/23 06:12:46;;;;;;;8.82;7.20;;;19.60;49.10;;;;;;5093338;28;20039;-72
2022/03/23 06:15:12;;;;;;;9.90;6.97;;;19.50;49.00;;;;;;5112298;28;20031;-73
2022/03/23 06:17:39;;;;;;;9.35;7.15;;;19.60;49.00;;;;;;5110592;28;20036;-73
2022/03/23 06:20:06;;;;;;;9.27;7.40;;;19.60;49.80;;;;;;5112356;28;20039;-72
2022/03/23 06:22:31;;;;;;;7.95;7.15;;;19.60;49.00;;;;;;5110319;28;20039;-73
2022/03/23 06:24:57;;;;;;;10.13;7.35;;;19.60;49.00;;;;;;5096779;28;20040;-73
2022/03/23 06:27:24;;;;;;;9.70;7.50;;;19.60;49.00;;;;;;5093577;28;20432;-72
2022/03/23 06:29:50;;;;;;;10.50;7.47;;;19.60;49.00;;;;;;5110962;28;20044;-74
2022/03/23 06:32:17;;;;;;;9.27;7.20;;;19.60;49.00;;;;;;5076050;28;20175;-73
2022/03/23 06:34:43;;;;;;;9.73;7.20;;;19.60;49.00;;;;;;5112112;28;20039;-73
2022/03/23 06:37:09;;;;;;;8.75;7.45;;;19.60;49.00;;;;;;5093127;28;20398;-72
2022/03/23 06:39:35;;;;;;;10.02;7.25;;;19.60;49.00;;;;;;5112509;28;20032;-73
2022/03/23 06:42:01;;;;;;;10.27;7.60;;;19.60;48.90;;;;;;5093809;28;20141;-72
2022/03/23 06:44:27;;;;;;;9.55;7.53;;;19.60;48.90;;;;;;5089653;28;20111;-72
2022/03/23 06:46:53;;;;;;;12.02;8.00;;;19.60;48.90;;;;;;5111470;27;20119;-71
2022/03/23 06:49:19;;;;;;;10.07;7.45;;;19.70;48.90;;;;;;5093756;28;20133;-71
2022/03/23 06:51:44;;;;;;;11.73;7.43;;;19.70;49.10;;;;;;5110876;28;20048;-70
2022/03/23 06:54:10;;;;;;;8.73;7.43;;;19.70;49.20;;;;;;5110127;28;20063;-68
2022/03/23 06:56:36;;;;;;;9.57;7.53;;;19.70;49.30;;;;;;5111733;28;20074;-67
2022/03/23 06:59:04;;;;;;;11.35;7.68;;;19.70;49.40;;;;;;5110373;27;20559;-67
2022/03/23 07:01:30;;;;;;;10.13;7.57;;;19.70;49.50;;;;;;5110661;28;20437;-68
2022/03/23 07:03:55;;;;;;;9.82;7.80;;;19.70;49.60;;;;;;5111151;28;20039;-68
2022/03/23 07:06:21;;;;;;;9.95;8.02;;;19.70;49.70;;;;;;5111225;28;20040;-70
2022/03/23 07:11:32;;;;;;;13.68;7.72;;;19.70;49.80;;;;;;5108262;28;20044;-77
2022/03/23 07:13:58;;;;;;;11.85;8.25;;;19.80;49.80;;;;;;5091880;28;20046;-72
2022/03/23 07:16:24;;;;;;;9.70;7.18;;;19.80;49.90;;;;;;5084840;28;20031;-70
2022/03/23 07:18:49;;;;;;;11.38;8.23;;;19.80;49.90;;;;;;5107143;27;20031;-70
2022/03/23 07:21:15;;;;;;;14.27;7.70;;;19.90;50.00;;;;;;5108854;28;20505;-72
2022/03/23 07:23:41;;;;;;;12.85;8.45;;;19.90;50.10;;;;;;5088191;28;20054;-69
2022/03/23 07:26:08;;;;;;;11.55;8.00;;;20.00;50.40;;;;;;5108136;27;20043;-69
2022/03/23 07:28:34;;;;;;;10.82;7.78;;;20.00;50.60;;;;;;5107337;28;20658;-69
2022/03/23 07:31:00;;;;;;;13.23;7.80;;;20.00;50.70;;;;;;5104034;28;20069;-69
2022/03/23 07:33:26;;;;;;;10.18;7.10;;;20.10;50.90;;;;;;5109788;28;20047;-71
2022/03/23 07:35:52;;;;;;;10.27;7.50;;;20.20;51.10;;;;;;5089493;28;20043;-71
2022/03/23 07:38:19;;;;;;;11.15;7.38;;;20.20;51.20;;;;;;5108738;28;20035;-72
2022/03/23 07:40:45;;;;;;;9.73;7.10;;;20.20;51.30;;;;;;5109866;28;20047;-70
2022/03/23 07:43:11;;;;;;;10.52;7.28;;;20.30;51.30;;;;;;5109430;28;20293;-70
2022/03/23 07:45:37;;;;;;;8.95;7.22;;;20.40;51.40;;;;;;5110394;28;20071;-70
2022/03/23 07:48:03;;;;;;;9.55;7.25;;;20.40;51.40;;;;;;5111036;27;20065;-70
2022/03/23 07:50:29;;;;;;;9.02;6.97;;;20.50;51.50;;;;;;5110262;28;20058;-68
2022/03/23 07:52:55;;;;;;;8.23;6.43;;;20.60;51.50;;;;;;5088888;28;20054;-69
2022/03/23 07:55:21;;;;;;;13.07;7.18;;;20.60;51.50;;;;;;5109592;28;20031;-68
2022/03/23 07:57:47;;;;;;;8.50;6.60;;;20.60;51.40;;;;;;5090384;28;20036;-70
2022/03/23 08:00:13;;;;;;;11.90;6.70;;;20.60;51.40;;;;;;5109114;28;20141;-68
2022/03/23 08:02:40;;;;;;;8.80;6.55;;;20.70;51.40;;;;;;5109492;28;20036;-70
2022/03/23 08:05:07;;;;;;;8.73;7.03;;;20.70;51.40;;;;;;5108728;28;20504;-71
2022/03/23 08:07:33;;;;;;;9.60;6.75;;;20.80;51.40;;;;;;5104914;28;20119;-72
2022/03/23 08:09:59;;;;;;;12.90;6.63;;;20.80;51.30;;;;;;5105077;28;20828;-70
2022/03/23 08:12:25;;;;;;;7.95;6.32;;;20.90;51.30;;;;;;5107861;28;20555;-70
2022/03/23 08:14:50;;;;;;;8.35;6.38;;;20.90;51.20;;;;;;5108815;27;20039;-71
2022/03/23 08:17:16;;;;;;;7.85;6.25;;;21.00;51.30;;;;;;5107526;28;20633;-71
2022/03/23 08:19:42;;;;;;;9.25;6.57;;;21.00;51.10;;;;;;5107156;27;20024;-70
2022/03/23 08:22:09;;;;;;;8.57;6.10;;;21.10;51.10;;;;;;5106651;28;20508;-69
2022/03/23 08:24:35;;;;;;;9.45;6.10;;;21.10;51.00;;;;;;5106292;28;20043;-71
2022/03/23 08:27:00;;;;;;;10.30;6.65;;;21.10;51.00;;;;;;5089365;28;20054;-70
2022/03/23 08:29:27;;;;;;;8.77;6.07;;;21.20;51.00;;;;;;5109663;28;20040;-70
2022/03/23 08:31:53;;;;;;;8.32;6.07;;;21.20;50.90;;;;;;5089811;28;20031;-70
2022/03/23 08:34:18;;;;;;;8.43;5.95;;;21.20;50.80;;;;;;5090165;28;20050;-71
2022/03/23 08:36:44;;;;;;;7.78;6.15;;;21.30;50.80;;;;;;5109382;28;20359;-70
2022/03/23 08:39:10;;;;;;;7.85;5.97;;;21.30;50.70;;;;;;5107534;28;20078;-71
2022/03/23 08:41:36;;;;;;;8.18;5.88;;;21.40;51.50;;;;;;5108298;28;20494;-71
2022/03/23 08:44:03;;;;;;;7.20;5.68;;;21.40;50.60;;;;;;5107971;28;20035;-70
2022/03/23 08:46:28;;;;;;;6.85;5.40;;;21.40;50.60;;;;;;5073356;28;20040;-72
2022/03/23 08:48:54;;;;;;;7.95;6.10;;;21.50;50.60;;;;;;5089215;28;20046;-69
2022/03/23 08:51:20;;;;;;;9.50;6.55;;;21.50;50.30;;;;;;5084708;28;20075;-70
2022/03/23 08:53:46;;;;;;;8.85;6.32;;;21.50;50.00;;;;;;5086923;28;20075;-71
2022/03/23 08:56:12;;;;;;;9.70;6.38;;;21.50;49.90;;;;;;5089835;28;20039;-70
2022/03/23 08:58:49;;;;;;;7.80;6.25;;;21.50;49.70;;;;;;5089714;28;20035;-71
2022/03/23 09:01:16;;;;;;;9.10;5.90;;;21.50;49.30;;;;;;5108989;28;20550;-72
2022/03/23 09:03:42;;;;;;;8.48;6.20;;;21.60;49.70;;;;;;5106255;27;20047;-70
2022/03/23 09:06:09;;;;;;;9.43;5.82;;;21.60;49.10;;;;;;5105614;28;20444;-71
2022/03/23 09:08:35;;;;;;;11.02;5.78;;;21.60;49.20;;;;;;5087794;28;20552;-73
2022/03/23 09:11:01;;;;;;;7.72;5.97;;;21.70;49.20;;;;;;5106092;28;20044;-73
2022/03/23 09:13:26;;;;;;;10.60;6.15;;;21.70;49.10;;;;;;5090182;28;20383;-73
2022/03/23 09:15:52;;;;;;;9.13;5.70;;;21.90;51.20;;;;;;5107499;28;20121;-73
2022/03/23 09:18:18;;;;;;;9.80;6.28;;;21.70;49.10;;;;;;5111671;28;20044;-73
2022/03/23 09:20:43;;;;;;;8.20;5.70;;;21.80;49.20;;;;;;5108666;28;20040;-74
2022/03/23 09:23:10;;;;;;;10.27;6.10;;;21.80;49.20;;;;;;5107321;28;20520;-73
2022/03/23 09:25:36;;;;;;;9.02;5.82;;;21.70;49.10;;;;;;5090076;28;20052;-73
2022/03/23 09:28:03;;;;;;;6.80;5.22;;;21.80;49.10;;;;;;5110623;28;20552;-74
2022/03/23 09:30:29;;;;;;;8.05;5.47;;;21.90;69.10;;;;;;5086081;27;20044;-72
2022/03/23 09:32:56;;;;;;;8.45;5.32;;;21.90;61.30;;;;;;5112136;27;20080;-71
2022/03/23 09:35:22;;;;;;;8.75;5.80;;;21.90;56.10;;;;;;5076722;28;20047;-73
2022/03/23 09:37:48;;;;;;;6.05;4.75;;;21.90;60.20;;;;;;5075347;28;20047;-73
2022/03/23 09:40:24;;;;;;;6.75;5.07;;;22.00;55.90;;;;;;5074994;28;20505;-73
2022/03/23 09:42:51;;;;;;;8.40;5.20;;;21.90;49.00;;;;;;5075516;28;20449;-71
2022/03/23 09:45:39;;;;;;;7.03;5.43;;;21.90;49.00;;;;;;5092359;28;20047;-73
2022/03/23 09:48:12;;;;;;;6.22;5.18;;;21.90;49.00;;;;;;5075879;28;20317;-73
2022/03/23 09:50:41;;;;;;;7.78;5.32;;;21.90;49.00;;;;;;5064529;28;20048;-73
2022/03/23 09:53:09;;;;;;;8.00;5.00;;;21.90;48.90;;;;;;5074659;28;20043;-72
2022/03/23 09:55:44;;;;;;;5.85;4.75;;;21.90;48.90;;;;;;5073051;28;20092;-72
2022/03/23 09:58:11;;;;;;;7.15;5.40;;;21.90;48.90;;;;;;5076174;28;20043;-72
2022/03/23 10:00:41;;;;;;;9.25;5.43;;;21.90;49.00;;;;;;5075474;28;20047;-73
2022/03/23 10:03:13;;;;;;;6.03;4.75;;;21.90;48.90;;;;;;5091250;28;20072;-71
2022/03/23 10:06:11;;;;;;;9.40;5.03;;;21.90;48.80;;;;;;5073723;28;20046;-72
2022/03/23 10:09:13;;;;;;;7.55;5.30;;;21.90;48.80;;;;;;5073933;28;20086;-72
2022/03/23 10:12:16;;;;;;;7.55;5.30;;;21.90;48.80;;;;;;5058567;28;20108;-71
2022/03/23 10:15:33;;;;;;;7.35;5.45;;;21.90;48.70;;;;;;5122484;27;20039;-71
2022/03/23 10:18:21;;;;;;;9.77;5.90;;;21.90;48.70;;;;;;5097532;27;20375;-71
2022/03/23 10:20:47;;;;;;;7.60;5.60;;;21.90;48.30;;;;;;5113373;28;20028;-71
2022/03/23 10:23:13;;;;;;;10.05;5.82;;;21.90;48.30;;;;;;5093776;28;20042;-71
2022/03/23 10:25:40;;;;;;;8.82;5.75;;;21.90;48.10;;;;;;5110859;28;20028;-72
2022/03/23 10:28:17;;;;;;;9.18;5.85;;;21.90;47.90;;;;;;5113085;28;20440;-71
2022/03/23 10:30:45;;;;;;;9.77;5.63;;;21.90;47.60;;;;;;5092949;28;20044;-71
2022/03/23 10:33:24;;;;;;;9.23;5.70;;;21.90;47.70;;;;;;5093942;28;20078;-71
2022/03/23 10:35:51;;;;;;;9.48;5.97;;;21.90;47.60;;;;;;5110816;28;20067;-72
2022/03/23 10:38:20;;;;;;;9.07;5.47;;;21.90;47.50;;;;;;5103807;28;20157;-71
2022/03/23 10:40:49;;;;;;;9.52;5.60;;;21.90;47.40;;;;;;5087440;28;20047;-72
2022/03/23 10:43:20;;;;;;;8.38;5.43;;;21.90;47.20;;;;;;5094848;28;20054;-72
2022/03/23 10:45:47;;;;;;;6.93;5.55;;;21.90;47.10;;;;;;5113353;28;20047;-73
2022/03/23 10:48:17;;;;;;;9.65;5.63;;;21.90;47.20;;;;;;5077505;28;20511;-73
2022/03/23 10:50:53;;;;;;;9.02;6.13;;;21.90;46.90;;;;;;5098724;27;20452;-73
2022/03/23 10:53:31;;;;;;;7.75;5.90;;;21.90;46.90;;;;;;5111196;28;20548;-73
2022/03/23 10:55:57;;;;;;;;;;;21.90;46.80;;;;;;5094917;28;20448;-73
2022/03/23 10:58:25;;;;;;;7.88;5.40;;;21.90;46.70;;;;;;5095110;28;19926;-72
2022/03/23 11:01:12;;;;;;;8.63;6.15;;;21.90;46.90;;;;;;5111749;28;20042;-73
2022/03/23 11:03:42;;;;;;;9.65;5.90;;;21.90;46.50;;;;;;5081043;28;20120;-73
2022/03/23 11:06:27;;;;;;;10.45;6.13;;;21.90;46.50;;;;;;5095537;28;20131;-73
2022/03/23 11:08:53;;;;;;;10.27;5.70;;;21.90;46.20;;;;;;5104637;28;20035;-71
2022/03/23 11:16:56;;;;;;;8.30;5.47;;;21.80;45.80;;;;;;5094190;28;20085;-71
2022/03/23 11:19:24;;;;;;;6.75;5.28;;;21.80;45.70;;;;;;5110525;28;20047;-71
2022/03/23 11:22:12;;;;;;;11.13;5.80;;;21.80;45.90;;;;;;5091004;28;20032;-72
2022/03/23 11:24:43;;;;;;;7.70;5.23;;;21.90;45.90;;;;;;5110102;28;20118;-72
2022/03/23 11:27:11;;;;;;;9.60;4.97;;;21.90;45.90;;;;;;5093730;28;20039;-73
2022/03/23 11:29:39;;;;;;;9.45;5.60;;;21.90;45.90;;;;;;5110875;27;20023;-70
2022/03/23 11:32:15;;;;;;;10.70;5.30;;;21.90;45.80;;;;;;5092154;28;20171;-70
2022/03/23 11:34:47;;;;;;;9.82;5.78;;;21.90;45.70;;;;;;5109223;28;20598;-70
2022/03/23 11:37:13;;;;;;;12.00;5.40;;;21.90;45.70;;;;;;5092010;28;20784;-70
2022/03/23 11:39:41;;;;;;;9.00;5.30;;;21.90;45.60;;;;;;5111318;28;20024;-69
2022/03/23 11:42:07;;;;;;;9.85;6.03;;;21.90;45.60;;;;;;5110788;27;20514;-70
2022/03/23 11:44:36;;;;;;;8.18;4.82;;;21.90;45.60;;;;;;5093061;28;20062;-70
2022/03/23 11:47:08;;;;;;;6.78;5.00;;;21.90;45.50;;;;;;5092316;28;20771;-69
2022/03/23 11:49:52;;;;;;;7.55;5.45;;;22.00;45.50;;;;;;5108915;28;20079;-74
2022/03/23 11:52:24;;;;;;;8.35;5.25;;;22.00;45.40;;;;;;5089910;28;20089;-70
2022/03/23 11:58:17;;;;;;;8.65;5.35;;;22.00;45.50;;;;;;5108338;28;20040;-70
2022/03/23 12:00:51;;;;;;;8.13;4.95;;;22.00;77.80;;;;;;5107939;28;20126;-70
2022/03/23 12:03:48;;;;;;;10.48;5.57;;;22.10;45.70;;;;;;5108696;28;20054;-70
2022/03/23 12:06:21;;;;;;;9.48;5.10;;;22.10;45.80;;;;;;5107317;28;20073;-69
2022/03/23 12:08:55;;;;;;;9.40;5.25;;;22.10;45.70;;;;;;5106041;28;20043;-68
2022/03/23 12:11:43;;;;;;;10.52;5.75;;;22.10;45.70;;;;;;5087655;28;20093;-70
2022/03/23 12:14:21;;;;;;;12.52;5.57;;;22.20;45.70;;;;;;5106750;28;20072;-69
2022/03/23 12:16:53;;;;;;;9.85;5.25;;;22.20;45.80;;;;;;5089424;28;20035;-74
2022/03/23 12:19:27;;;;;;;8.63;5.43;;;22.30;45.80;;;;;;5115204;27;20531;-70
2022/03/23 12:21:55;;;;;;;12.23;5.55;;;22.30;45.60;;;;;;5109057;28;20043;-70
2022/03/23 12:24:33;;;;;;;;;;;22.30;45.40;;;;;;5092029;28;20063;-71
2022/03/23 12:27:05;;;;;;;9.73;5.38;;;22.40;45.50;;;;;;5110991;28;19923;-74
2022/03/23 12:29:35;;;;;;;9.55;5.53;;;22.40;45.30;;;;;;5088554;28;20039;-70
2022/03/23 12:32:10;;;;;;;9.50;5.32;;;22.50;45.30;;;;;;5111354;28;20084;-71
2022/03/23 12:34:40;;;;;;;14.75;6.07;;;22.60;45.30;;;;;;5111123;28;20047;-71
2022/03/23 12:37:16;;;;;;;12.95;5.80;;;23.00;45.10;;;;;;5110407;28;20051;-71
2022/03/23 12:39:53;;;;;;;8.88;5.60;;;24.30;43.20;;;;;;5110283;28;20114;-70
2022/03/23 12:42:43;;;;;;;7.97;5.90;;;25.10;41.10;;;;;;5102880;28;20040;-72
2022/03/23 12:45:10;;;;;;;9.20;5.90;;;25.30;41.20;;;;;;5098118;28;20051;-72
2022/03/23 12:47:37;;;;;;;10.07;5.55;;;25.60;40.80;;;;;;5110586;28;20703;-74
2022/03/23 12:58:36;;;;;;;9.48;5.90;;;27.30;38.00;;;;;;5110161;28;20052;-71
2022/03/23 13:01:19;;;;;;;9.75;6.07;;;27.70;37.40;;;;;;5107838;27;20157;-71
2022/03/23 13:03:45;;;;;;;8.60;5.60;;;28.00;36.50;;;;;;5100927;28;20051;-70
2022/03/23 13:06:31;;;;;;;12.00;5.70;;;28.20;36.00;;;;;;5109909;28;20045;-70
2022/03/23 13:08:56;;;;;;;8.82;5.68;;;28.50;36.40;;;;;;5109375;28;20043;-70
2022/03/23 13:11:25;;;;;;;9.95;5.75;;;28.70;35.10;;;;;;5108199;28;20066;-70
2022/03/23 13:13:54;;;;;;;13.07;5.95;;;29.00;34.60;;;;;;5103130;28;20040;-70
2022/03/23 13:16:28;;;;;;;9.38;6.20;;;29.20;34.10;;;;;;5109029;28;20043;-72
2022/03/23 13:18:59;;;;;;;11.88;5.50;;;29.40;33.60;;;;;;5108210;28;20067;-71